EWG76U EDDH-EDDG
Flight info
| Callsign | EWG76U |
|---|---|
| Flight time | 0h 27m |
| Altitude | 22000 |
| Route | HABFU1G/33 HABFU Y348 MAWEQ Z718 OSNAD |
| Aircraft | A320/M-SDE3FGHIRWY/LB1 |
Departure
| Time | 2026-05-04 20:05 |
|---|---|
| Airport | Hamburg Helmut Schmidt Airport (EDDH) |
Arrival
| Time | 2026-05-04 20:33 |
|---|---|
| Airport | Münster Osnabrück Airport (EDDG) |
| Time | Latitude | Longitude | Altitude | Speed | Heading |
|---|---|---|---|---|---|
| 2026-05-04 20:05 | 53.70028 | 9.93630 | 2792 ft | 213 kts | 330° |
| 2026-05-04 20:05 | 53.71168 | 9.92079 | 3554 ft | 213 kts | 299° |
| 2026-05-04 20:05 | 53.71520 | 9.89656 | 4138 ft | 225 kts | 262° |
| 2026-05-04 20:06 | 53.71104 | 9.86969 | 4580 ft | 248 kts | 251° |
| 2026-05-04 20:06 | 53.70539 | 9.84166 | 5365 ft | 255 kts | 250° |
| 2026-05-04 20:06 | 53.69945 | 9.81320 | 6267 ft | 259 kts | 250° |
| 2026-05-04 20:06 | 53.69345 | 9.78446 | 7129 ft | 262 kts | 250° |
| 2026-05-04 20:07 | 53.68741 | 9.75522 | 7995 ft | 265 kts | 251° |
| 2026-05-04 20:07 | 53.68146 | 9.72571 | 8882 ft | 268 kts | 251° |
| 2026-05-04 20:07 | 53.67490 | 9.69611 | 9761 ft | 271 kts | 242° |
| 2026-05-04 20:07 | 53.66283 | 9.67133 | 10482 ft | 278 kts | 219° |
| 2026-05-04 20:08 | 53.64520 | 9.65520 | 10728 ft | 304 kts | 205° |
| 2026-05-04 20:08 | 53.62499 | 9.64082 | 11049 ft | 323 kts | 205° |
| 2026-05-04 20:08 | 53.60409 | 9.62624 | 11668 ft | 328 kts | 204° |
| 2026-05-04 20:08 | 53.58220 | 9.61096 | 12363 ft | 332 kts | 205° |
| 2026-05-04 20:09 | 53.56089 | 9.59593 | 13026 ft | 338 kts | 205° |
| 2026-05-04 20:09 | 53.53900 | 9.58049 | 13746 ft | 343 kts | 204° |
| 2026-05-04 20:09 | 53.51756 | 9.56539 | 14360 ft | 346 kts | 205° |
| 2026-05-04 20:09 | 53.49526 | 9.54971 | 14996 ft | 349 kts | 205° |
| 2026-05-04 20:10 | 53.47277 | 9.53386 | 15629 ft | 353 kts | 205° |
| 2026-05-04 20:10 | 53.44999 | 9.51769 | 16273 ft | 357 kts | 205° |
| 2026-05-04 20:10 | 53.42701 | 9.50137 | 16924 ft | 359 kts | 205° |
| 2026-05-04 20:10 | 53.40393 | 9.48499 | 17545 ft | 363 kts | 205° |
| 2026-05-04 20:11 | 53.38050 | 9.46849 | 18162 ft | 366 kts | 205° |
| 2026-05-04 20:11 | 53.35691 | 9.45192 | 18707 ft | 369 kts | 205° |
| 2026-05-04 20:11 | 53.33314 | 9.43527 | 19254 ft | 371 kts | 205° |
| 2026-05-04 20:11 | 53.30931 | 9.41859 | 19783 ft | 373 kts | 205° |
| 2026-05-04 20:12 | 53.28536 | 9.40181 | 19951 ft | 372 kts | 205° |
| 2026-05-04 20:12 | 53.26156 | 9.38510 | 19988 ft | 371 kts | 205° |
| 2026-05-04 20:12 | 53.23776 | 9.36841 | 19991 ft | 370 kts | 205° |
| 2026-05-04 20:12 | 53.21407 | 9.35186 | 19991 ft | 369 kts | 205° |
| 2026-05-04 20:13 | 53.19025 | 9.33523 | 19992 ft | 370 kts | 205° |
| 2026-05-04 20:13 | 53.16651 | 9.31866 | 19992 ft | 371 kts | 205° |
| 2026-05-04 20:13 | 53.14262 | 9.30197 | 19994 ft | 371 kts | 205° |
| 2026-05-04 20:13 | 53.11887 | 9.28538 | 19993 ft | 371 kts | 205° |
| 2026-05-04 20:14 | 53.09503 | 9.26882 | 19996 ft | 371 kts | 205° |
| 2026-05-04 20:14 | 53.07125 | 9.25239 | 19995 ft | 372 kts | 204° |
| 2026-05-04 20:14 | 53.04733 | 9.23595 | 19995 ft | 371 kts | 204° |
| 2026-05-04 20:14 | 53.02349 | 9.21961 | 19996 ft | 371 kts | 204° |
| 2026-05-04 20:15 | 52.99965 | 9.20310 | 19987 ft | 372 kts | 205° |
| 2026-05-04 20:15 | 52.97628 | 9.18682 | 19993 ft | 369 kts | 205° |
| 2026-05-04 20:15 | 52.95237 | 9.16999 | 19995 ft | 366 kts | 207° |
| 2026-05-04 20:15 | 52.92982 | 9.15069 | 19994 ft | 366 kts | 210° |
| 2026-05-04 20:16 | 52.90747 | 9.13102 | 20009 ft | 369 kts | 210° |
| 2026-05-04 20:16 | 52.88446 | 9.11075 | 19997 ft | 370 kts | 209° |
| 2026-05-04 20:16 | 52.86199 | 9.09104 | 19997 ft | 370 kts | 209° |
| 2026-05-04 20:16 | 52.83923 | 9.07110 | 19994 ft | 371 kts | 209° |
| 2026-05-04 20:17 | 52.81638 | 9.05113 | 19991 ft | 371 kts | 209° |
| 2026-05-04 20:17 | 52.79315 | 9.03088 | 19985 ft | 373 kts | 209° |
| 2026-05-04 20:17 | 52.77028 | 9.01104 | 19981 ft | 372 kts | 209° |
| 2026-05-04 20:17 | 52.74746 | 8.99134 | 19980 ft | 370 kts | 209° |
| 2026-05-04 20:18 | 52.72458 | 8.97159 | 19972 ft | 370 kts | 209° |
| 2026-05-04 20:18 | 52.70234 | 8.95214 | 19781 ft | 366 kts | 208° |
| 2026-05-04 20:18 | 52.67978 | 8.93239 | 19227 ft | 369 kts | 210° |
| 2026-05-04 20:18 | 52.65741 | 8.91281 | 18730 ft | 359 kts | 208° |
| 2026-05-04 20:19 | 52.63527 | 8.89378 | 18264 ft | 357 kts | 208° |
| 2026-05-04 20:19 | 52.61332 | 8.87481 | 17746 ft | 355 kts | 208° |
| 2026-05-04 20:19 | 52.59146 | 8.85591 | 17275 ft | 353 kts | 208° |
| 2026-05-04 20:19 | 52.56975 | 8.83718 | 16822 ft | 351 kts | 208° |
| 2026-05-04 20:20 | 52.54823 | 8.81858 | 16360 ft | 349 kts | 208° |
| 2026-05-04 20:20 | 52.52682 | 8.80006 | 15910 ft | 346 kts | 208° |
| 2026-05-04 20:20 | 52.50550 | 8.78161 | 15468 ft | 345 kts | 208° |
| 2026-05-04 20:20 | 52.48437 | 8.76337 | 15024 ft | 343 kts | 208° |
| 2026-05-04 20:21 | 52.46324 | 8.74518 | 14583 ft | 342 kts | 208° |
| 2026-05-04 20:21 | 52.44229 | 8.72714 | 14129 ft | 340 kts | 208° |
| 2026-05-04 20:21 | 52.40055 | 8.69132 | 13203 ft | 336 kts | 207° |
| 2026-05-04 20:22 | 52.37987 | 8.67358 | 12756 ft | 334 kts | 207° |
| 2026-05-04 20:22 | 52.35938 | 8.65605 | 12313 ft | 331 kts | 207° |
| 2026-05-04 20:22 | 52.33898 | 8.63873 | 11860 ft | 328 kts | 207° |
| 2026-05-04 20:22 | 52.31876 | 8.62154 | 11408 ft | 326 kts | 207° |
| 2026-05-04 20:23 | 52.29870 | 8.60431 | 10968 ft | 325 kts | 210° |
| 2026-05-04 20:23 | 52.28080 | 8.58208 | 10524 ft | 322 kts | 225° |
| 2026-05-04 20:23 | 52.26725 | 8.55329 | 10240 ft | 316 kts | 240° |
| 2026-05-04 20:23 | 52.25838 | 8.52118 | 10126 ft | 305 kts | 248° |
| 2026-05-04 20:24 | 52.25065 | 8.48951 | 9986 ft | 296 kts | 248° |
| 2026-05-04 20:24 | 52.24306 | 8.45882 | 9724 ft | 290 kts | 247° |
| 2026-05-04 20:24 | 52.23547 | 8.42830 | 9343 ft | 289 kts | 247° |
| 2026-05-04 20:24 | 52.22795 | 8.39801 | 8984 ft | 287 kts | 248° |
| 2026-05-04 20:25 | 52.22047 | 8.36791 | 8583 ft | 286 kts | 248° |
| 2026-05-04 20:25 | 52.21304 | 8.33794 | 8141 ft | 282 kts | 248° |
| 2026-05-04 20:25 | 52.20572 | 8.30838 | 7496 ft | 279 kts | 247° |
| 2026-05-04 20:25 | 52.20027 | 8.27825 | 6861 ft | 277 kts | 261° |
| 2026-05-04 20:26 | 52.19899 | 8.24713 | 6248 ft | 274 kts | 266° |
| 2026-05-04 20:26 | 52.19814 | 8.21621 | 5605 ft | 271 kts | 266° |
| 2026-05-04 20:26 | 52.19727 | 8.18579 | 4980 ft | 267 kts | 266° |
| 2026-05-04 20:26 | 52.19640 | 8.15594 | 4380 ft | 262 kts | 266° |
| 2026-05-04 20:27 | 52.19549 | 8.12660 | 3946 ft | 255 kts | 266° |
| 2026-05-04 20:27 | 52.19465 | 8.09922 | 3874 ft | 230 kts | 266° |
| 2026-05-04 20:27 | 52.19386 | 8.07380 | 3828 ft | 223 kts | 265° |
| 2026-05-04 20:27 | 52.19304 | 8.04843 | 3748 ft | 222 kts | 265° |
| 2026-05-04 20:28 | 52.19224 | 8.02329 | 3657 ft | 222 kts | 266° |
| 2026-05-04 20:28 | 52.19145 | 7.99824 | 3565 ft | 221 kts | 266° |
| 2026-05-04 20:28 | 52.19067 | 7.97323 | 3469 ft | 221 kts | 265° |
| 2026-05-04 20:28 | 52.18935 | 7.94840 | 3324 ft | 220 kts | 256° |
| 2026-05-04 20:29 | 52.18532 | 7.92583 | 3089 ft | 219 kts | 250° |
| 2026-05-04 20:29 | 52.18034 | 7.90234 | 2810 ft | 219 kts | 250° |
| 2026-05-04 20:29 | 52.17541 | 7.87902 | 2525 ft | 217 kts | 250° |
| 2026-05-04 20:29 | 52.17067 | 7.85643 | 2237 ft | 207 kts | 250° |
| 2026-05-04 20:30 | 52.16764 | 7.84172 | 2059 ft | 197 kts | 250° |
| 2026-05-04 20:30 | 52.16348 | 7.82195 | 1814 ft | 178 kts | 250° |
| 2026-05-04 20:30 | 52.15965 | 7.80368 | 1607 ft | 163 kts | 249° |
| 2026-05-04 20:30 | 52.15612 | 7.78696 | 1379 ft | 151 kts | 250° |
| 2026-05-04 20:31 | 52.15280 | 7.77110 | 1178 ft | 146 kts | 249° |
| 2026-05-04 20:31 | 52.14955 | 7.75559 | 952 ft | 142 kts | 249° |
| 2026-05-04 20:31 | 52.14635 | 7.74031 | 740 ft | 141 kts | 251° |
| 2026-05-04 20:31 | 52.14326 | 7.72545 | 575 ft | 139 kts | 251° |
| 2026-05-04 20:32 | 52.14007 | 7.71042 | 382 ft | 139 kts | 249° |
| 2026-05-04 20:32 | 52.13699 | 7.69596 | 209 ft | 137 kts | 250° |
| 2026-05-04 20:32 | 52.13426 | 7.68289 | 169 ft | 94 kts | 251° |
| 2026-05-04 20:32 | 52.13282 | 7.67618 | 166 ft | 51 kts | 251° |
| 2026-05-04 20:33 | 52.13198 | 7.67222 | 165 ft | 26 kts | 251° |
| 2026-05-04 20:33 | 52.13138 | 7.67048 | 166 ft | 15 kts | 200° |
| 2026-05-04 20:33 | 52.13047 | 7.67116 | 167 ft | 18 kts | 125° |
| 2026-05-04 20:33 | 52.13044 | 7.67323 | 167 ft | 21 kts | 72° |
| 2026-05-04 20:34 | 52.13096 | 7.67571 | 167 ft | 25 kts | 70° |
| 2026-05-04 20:34 | 52.13157 | 7.67858 | 167 ft | 29 kts | 71° |
| 2026-05-04 20:34 | 52.13224 | 7.68174 | 168 ft | 30 kts | 70° |
| 2026-05-04 20:34 | 52.13294 | 7.68503 | 168 ft | 24 kts | 71° |
| 2026-05-04 20:35 | 52.13345 | 7.68750 | 167 ft | 21 kts | 70° |
| 2026-05-04 20:35 | 52.13371 | 7.68867 | 167 ft | 13 kts | 70° |
| 2026-05-04 20:35 | 52.13411 | 7.69057 | 167 ft | 21 kts | 71° |
| 2026-05-04 20:35 | 52.13415 | 7.69237 | 167 ft | 10 kts | 145° |
| 2026-05-04 20:36 | 52.13393 | 7.69254 | 167 ft | 3 kts | 129° |
| 2026-05-04 20:36 | 52.13388 | 7.69286 | 167 ft | 3 kts | 101° |
| 2026-05-04 20:36 | 52.13384 | 7.69345 | 167 ft | 12 kts | 120° |
| 2026-05-04 20:36 | 52.13298 | 7.69412 | 167 ft | 12 kts | 160° |
| 2026-05-04 20:37 | 52.13235 | 7.69365 | 167 ft | 12 kts | 253° |
| 2026-05-04 20:37 | 52.13168 | 7.69307 | 167 ft | 5 kts | 196° |
| 2026-05-04 20:37 | 52.13162 | 7.69304 | 167 ft | 0 kts | 198° |